METAR Data
IDs: Format: Raw Decoded Include TAF

Data at: 0807 UTC 11 Dec 2018

PAMB 110756Z AUTO 30013G24KT 9SM -SN FEW012 BKN030 OVC036 M01/M01 A2862 RMK AO2 UPE10B32E48RAB10E32SNB48 SLP699 P0000 T10061011 FZRANO $
PAMB 110726Z AUTO 28008KT 10SM -RA SCT008 BKN015 OVC030 00/00 A2861 RMK AO2 UPE10RAB10 P0000 FZRANO $
PAMB 110715Z AUTO 28006KT 9SM -RA SCT015 BKN023 OVC030 A2860 RMK AO2 UPE10RAB10 P0000 FZRANO $
PAMB 110704Z AUTO 28006KT 4SM UP BKN013 BKN018 OVC030 00/ A2860 RMK AO2 P0000 FZRANO $
PAMB 110656Z AUTO 28004KT 2 1/2SM UP BR BKN013 OVC022 00/00 A2859 RMK AO2 SLP688 P0000 T00000000 FZRANO $
PAMB 110648Z AUTO 29004KT 2SM UP BR OVC013 00/00 A2859 RMK AO2 P0000 FZRANO $
PAMB 110637Z AUTO 29003KT 2 1/2SM UP BR OVC015 00/00 A2859 RMK AO2 P0000 FZRANO $
PAMB 110629Z AUTO 29004KT 2SM BR OVC013 00/00 A2858 RMK AO2 UPE25 P0000 FZRANO $
PAMB 110620Z AUTO 33004KT 1 1/2SM UP BR SCT009 OVC015 00/00 A2858 RMK AO2 P0000 FZRANO $
PAMB 110556Z AUTO 35005KT 1 1/4SM UP BR OVC007 00/00 A2857 RMK AO2 SLP679 P0000 60000 T00000000 10006 20000 51018 FZRANO $
PAMB 110551Z AUTO 35005KT 1 1/4SM UP BR OVC007 00/00 A2856 RMK AO2 CIG 005V010 P0000 FZRANO $
PAMB 110534Z AUTO 35006KT 1 1/4SM UP BR OVC005 00/00 A2855 RMK AO2 CIG 002V008 P0000 FZRANO $
PAMB 110527Z AUTO 36006KT 1SM UP BR OVC003 00/00 A2855 RMK AO2 CIG 002V007 P0000 FZRANO $
PAMB 110512Z AUTO 01006KT 2SM UP BR OVC003 00/00 A2854 RMK AO2 P0000 FZRANO $
PAMB 110456Z AUTO 02006KT 1 1/2SM UP BR BKN003 OVC010 00/00 A2853 RMK AO2 UPB39 SLP667 P0000 T00000000 FZRANO $
PAMB 110447Z AUTO 02007KT 2SM UP BR BKN003 OVC010 00/00 A2853 RMK AO2 UPB39 P0000 FZRANO $
PAMB 110421Z AUTO 04008KT 9SM FEW003 OVC012 00/00 A2852 RMK AO2 FZRANO $
PAMB 110356Z AUTO 04008KT 10SM OVC014 00/00 A2851 RMK AO2 SLP661 T00000000 FZRANO $
PAMB 110324Z AUTO 07008KT 10SM OVC014 01/00 A2850 RMK AO2 FZRANO $
PAMB 110256Z AUTO 07008KT 10SM OVC016 01/00 A2850 RMK AO2 SLP656 60000 T00060000 58004 FZRANO $
PAMB 110220Z AUTO 09008KT 10SM OVC016 01/00 A2850 RMK AO2 FZRANO $
PAMB 110155Z AUTO 11008KT 4SM BR FEW003 SCT009 OVC014 01/00 A2850 RMK AO2 UPB0059E49RAB37E47 SLP657 P0000 T00060000 FZRANO $
PAMB 110154Z AUTO 11008KT 4SM BR FEW003 SCT009 OVC014 01/00 A2850 RMK AO2 UPB0059E49RAB37E47 P0000 FZRANO $
PAMB 110142Z AUTO 12008KT 5SM -RA BR BKN003 OVC009 01/00 A2850 RMK AO2 UPB0059E37RAB37 CIG 001V005 P0000 FZRANO $
PAMB 110138Z AUTO 12008KT 4SM -RA BR SCT003 BKN011 OVC014 01/00 A2850 RMK AO2 UPB0059E37RAB37 CIG 007V012 P0000 FZRANO $
PAMB 110126Z AUTO 12008KT 2 1/2SM UP BR BKN003 OVC009 01/00 A2851 RMK AO2 UPB0059 P0000 FZRANO $
PAMB 110109Z AUTO 12010KT 4SM BR SCT003 OVC009 01/00 A2851 RMK AO2 UPB0059E09 CIG 006V012 P0000 FZRANO $
PAMB 110056Z AUTO 13009KT 4SM BR BKN003 OVC009 01/00 A2851 RMK AO2 UPE04B39E56 SLP660 P0000 T00060000 FZRANO $
PAMB 110038Z AUTO 14009KT 3SM BR BKN003 BKN007 OVC013 01/00 A2851 RMK AO2 UPE04 P0000 FZRANO $
PAMB 110031Z AUTO 13007KT 2SM BR BKN003 OVC013 01/00 A2851 RMK AO2 UPE04 CIG 001V006 P0000 FZRANO $
PAMB 110028Z AUTO 13007KT 1SM BR BKN003 OVC013 01/00 A2851 RMK AO2 UPE04 CIG 001V006 P0000 FZRANO $
PAMB 102356Z AUTO 08006KT 1/2SM UP FG OVC003 01/00 A2851 RMK AO2 RAB04E13B43E56UPB13 SLP659 P0000 60001 T00060000 10006 20000 56007 FZRANO $
PAMB 102352Z AUTO 08006KT 1/2SM -RA FG OVC003 01/00 A2851 RMK AO2 RAB04E13B43UPB13E43 P0000 FZRANO $
PAMB 102341Z AUTO 10007KT 3/4SM UP BR BKN003 OVC007 01/00 A2851 RMK AO2 RAB04E13UPB13 P0000 FZRANO $
PAMB 102336Z AUTO 10008KT 1 1/2SM UP BR BKN003 OVC007 01/00 A2851 RMK AO2 RAB04E13UPB13 P0000 FZRANO $
PAMB 102328Z AUTO 11007KT 2 1/2SM UP BR OVC005 01/00 A2851 RMK AO2 RAB04E13UPB13 P0000 FZRANO $
PAMB 102320Z AUTO 10010KT 1 3/4SM UP BR OVC005 01/00 A2851 RMK AO2 RAB04E13UPB13 CIG 004V009 P0000 FZRANO $
PAMB 102256Z AUTO 10011KT 10SM BKN005 OVC027 01/01 A2852 RMK AO2 SLP662 T00060006 FZRANO $
PAMB 102245Z AUTO 09013G19KT 10SM BKN005 OVC027 01/01 A2851 RMK AO2 FZRANO $
PAMB 102204Z AUTO 10013KT 10SM SCT005 OVC018 01/01 A2853 RMK AO2 FZRANO $
PAMB 102156Z AUTO 10011KT 10SM BKN005 OVC014 01/01 A2853 RMK AO2 UPB00E07RAB35E41SNB07E35 SLP666 P0000 T00060006 FZRANO $
PAMB 102154Z AUTO 10012KT 10SM BKN005 OVC014 01/01 A2853 RMK AO2 UPB00E07RAB35E41SNB07E35 P0000 FZRANO $
PAMB 102123Z AUTO 10011KT 3SM -SN BR OVC003 01/00 A2854 RMK AO2 UPB00E07SNB07 P0000 FZRANO $
PAMB 102114Z AUTO 11011G16KT 2 1/2SM -SN BR OVC003 01/00 A2854 RMK AO2 VIS 1 1/2V5 UPB00E07SNB07 P0000 FZRANO $
PAMB 102107Z AUTO 11010KT 1 3/4SM -SN BR OVC003 01/00 A2854 RMK AO2 UPB00E07SNB07 P0000 FZRANO $
PAMB 102056Z AUTO 12013G17KT 5SM BR OVC005 01/01 A2854 RMK AO2 UPE12RAB1959E08 SLP672 P0000 60001 T00060006 56002 FZRANO $
PAMB 101956Z AUTO 10011KT 9SM UP OVC005 01/00 A2854 RMK AO2 UPB38RAB50E56SNE38 SLP672 P0000 T00060000 FZRANO $
PAMB 101906Z AUTO 08014KT 2SM -SN BR OVC005 00/00 A2855 RMK AO2 P0000 FZRANO $
PAMB 101356Z AUTO 11016G22KT 3SM -SN BR OVC005 01/00 A2863 RMK AO2 SLP700 P0002 T00060000 FZRANO $
PAMB 101336Z AUTO 10016G21KT 3SM -SN BR OVC005 01/00 A2864 RMK AO2 P0002 FZRANO $
PAMB 101319Z AUTO 10014G19KT 3SM -SN BR OVC003 00/00 A2865 RMK AO2 P0001 FZRANO $
PAMB 101256Z AUTO 06010KT 2SM -SN BR BKN003 OVC008 M02/M02 A2866 RMK AO2 SLP712 P0002 T10171017 FZRANO $
PAMB 101252Z AUTO 05012KT 2SM -SN BR BKN003 OVC008 M02/M02 A2867 RMK AO2 P0002 FZRANO $
PAMB 101221Z AUTO 04014KT 1 1/2SM -SN BR OVC006 M02/M02 A2869 RMK AO2 P0001 FZRANO $
PAMB 101208Z AUTO 04015KT 1SM -SN BR OVC006 M02/M03 A2869 RMK AO2 P0001 FZRANO $
PAMB 101156Z AUTO 04011KT 1 1/4SM -SN BR OVC006 M02/M03 A2871 RMK AO2 SLP726 P0001 60001 70001 T10221028 11022 21039 58026 FZRANO $
PAMB 101148Z AUTO 04014KT 1 1/2SM -SN BR OVC006 M02/M03 A2871 RMK AO2 P0001 FZRANO $
PAMB 101140Z AUTO 04011KT 1SM -SN BR OVC006 M02/M03 A2871 RMK AO2 P0001 FZRANO $
PAMB 101128Z AUTO 04011KT 3/4SM -SN BR OVC006 M02/M03 A2872 RMK AO2 CIG 004V010 P0001 FZRANO $
PAMB 101120Z AUTO 03011KT 1SM -SN BR OVC008 M03/M03 A2873 RMK AO2 CIG 004V010 P0001 FZRANO $
PAMB 101103Z AUTO 04010KT 1 1/4SM -SN BR BKN008 OVC019 M02/M03 A2875 RMK AO2 CIG 005V010 P0000 FZRANO $
PAMB 101056Z AUTO 02011KT 2SM -SN BR BKN006 BKN019 OVC025 M03/M03 A2875 RMK AO2 CIG 005V010 SLP742 P0000 T10281033 FZRANO $
PAMB 101002Z AUTO 03010KT 3SM -SN BR BKN008 OVC019 M03/M04 A2878 RMK AO2 CIG 006V012 P0000 FZRANO $
PAMB 100956Z AUTO 02009KT 2SM -SN BR BKN010 OVC019 M03/M04 A2878 RMK AO2 SNB0858 CIG 006V012 SLP753 P0000 T10331039 FZRANO $
PAMB 100948Z AUTO 03009KT 1 1/4SM -SN BR OVC010 M03/M04 A2879 RMK AO2 SNB0858 CIG 006V012 P0000 FZRANO $
PAMB 100936Z AUTO 04010KT 3/4SM -SN BR OVC010 M03/M04 A2879 RMK AO2 SNB0858 CIG 005V012 P0000 FZRANO $
PAMB 100931Z AUTO 04010KT 1 1/4SM -SN BR OVC010 M03/M04 A2879 RMK AO2 SNB0858 CIG 005V012 P0000 FZRANO $
PAMB 100921Z AUTO 04010KT 1 3/4SM -SN BR BKN005 OVC010 M04/M04 A2880 RMK AO2 SNB0858 P0000 FZRANO $
PAMB 100856Z AUTO 03010KT 10SM OVC005 M04/M04 A2880 RMK AO2 SLP759 60000 T10391044 410391106 58007 FZRANO $
PAMB 100756Z AUTO 04011KT 7SM OVC005 M04/M04 A2882 RMK AO2 SNE22 SLP764 P0000 T10391044 FZRANO $
PAMB 100719Z AUTO 02010KT 4SM -SN BR OVC005 M04/M04 A2882 RMK AO2 P0000 FZRANO $
PAMB 100656Z AUTO 03009KT 7SM -SN OVC007 M04/M04 A2882 RMK AO2 SLP767 P0000 T10391044 FZRANO $
PAMB 100609Z AUTO 04009KT 5SM -SN BR OVC009 M04/M05 A2883 RMK AO2 P0000 FZRANO $
PAMB 100556Z AUTO 03011KT 5SM -SN BR OVC011 M04/M05 A2882 RMK AO2 CIG 009V013 SLP767 P0000 60000 T10391050 11039 21044 58007 FZRANO $
PAMB 100519Z AUTO 03010KT 3SM -SN BR OVC013 M04/M05 A2884 RMK AO2 P0000 FZRANO $
PAMB 100456Z AUTO 03014KT 2 1/2SM -SN BR OVC015 M04/M05 A2884 RMK AO2 SLP771 P0000 T10441050 FZRANO $
PAMB 100436Z AUTO 03011KT 3SM -SN BR OVC015 M04/M05 A2884 RMK AO2 P0000 FZRANO $
PAMB 100343Z AUTO 03014KT 1 3/4SM -SN BR FEW004 OVC014 M04/M05 A2885 RMK AO2 P0000 FZRANO $
PAMB 100330Z AUTO 03013KT 1 3/4SM -SN BR OVC014 M04/M05 A2885 RMK AO2 P0000 FZRANO $
PAMB 100256Z AUTO 03016G20KT 2SM -SN BR BKN021 OVC027 M04/M05 A2886 RMK AO2 SLP778 P0000 60000 T10441050 56018 FZRANO $
PAMB 100249Z AUTO 03014G20KT 2SM -SN BR BKN026 OVC032 M04/M05 A2886 RMK AO2 P0000 FZRANO $
PAMB 100240Z AUTO 03014KT 3SM -SN BR BKN026 OVC032 M04/M05 A2886 RMK AO2 P0000 FZRANO $
PAMB 100156Z AUTO 03014G23KT 3SM -SN BR FEW016 OVC035 M04/M05 A2887 RMK AO2 SLP784 P0000 T10441050 FZRANO $
PAMB 100135Z AUTO 03015KT 1 3/4SM -SN BR SCT016 BKN037 OVC049 M04/M05 A2888 RMK AO2 P0000 FZRANO $
PAMB 100117Z AUTO 03016G21KT 5SM -SN BR SCT035 OVC047 M04/M05 A2888 RMK AO2 P0000 FZRANO $
PAMB 100108Z AUTO 03016G21KT 2SM -SN BR BKN035 OVC047 M04/M05 A2888 RMK AO2 P0000 FZRANO $
PAMB 100103Z AUTO 03014KT 1SM -SN BR BKN035 OVC047 M04/M05 A2888 RMK AO2 P0000 FZRANO $
PAMB 100056Z AUTO 03014KT 1 1/4SM -SN BR FEW017 BKN035 OVC050 M04/M05 A2889 RMK AO2 SLP788 P0000 T10441050 FZRANO $
PAMB 100054Z AUTO 03015KT 1 3/4SM -SN BR FEW017 BKN035 OVC050 M04/M05 A2889 RMK AO2 P0000 FZRANO $
PAMB 092356Z AUTO 04015KT 9SM -SN OVC035 M04/M05 A2891 RMK AO2 SLP795 P0000 60000 T10441050 11044 21061 58013 FZRANO $
PAMB 092256Z AUTO 03014G20KT 3SM -SN BR SCT017 OVC037 M04/M05 A2893 RMK AO2 SLP802 P0000 T10441050 FZRANO $
PAMB 092249Z AUTO 03015G20KT 1 1/4SM -SN BR FEW007 BKN017 OVC035 M04/M05 A2893 RMK AO2 P0000 FZRANO $
PAMB 092246Z AUTO 03014KT 1SM -SN BR BKN017 OVC033 M04/M05 A2893 RMK AO2 P0000 FZRANO $
PAMB 092232Z AUTO 03014KT 1 3/4SM -SN BR FEW008 SCT019 OVC029 M04/M05 A2894 RMK AO2 P0000 FZRANO $
PAMB 092217Z AUTO 03014KT 5SM -SN BR FEW007 OVC029 M04/M06 A2894 RMK AO2 P0000 FZRANO $
PAMB 092156Z AUTO 03015KT 2SM -SN BR SCT007 OVC024 M05/M06 A2895 RMK AO2 SLP808 P0000 T10501056 FZRANO $
PAMB 092127Z AUTO 04015KT 1 3/4SM -SN BR FEW007 OVC018 M04/M05 A2895 RMK AO2 P0000 FZRANO $
PAMB 092120Z AUTO 04015KT 1SM -SN BR FEW007 OVC018 M04/M05 A2895 RMK AO2 P0000 FZRANO $
PAMB 092056Z AUTO 05014KT 1 3/4SM -SN BR OVC016 M04/M05 A2896 RMK AO2 SNB07 SLP814 P0000 60000 T10441050 56012 FZRANO $
PAMB 092041Z AUTO 05013KT 1 1/2SM -SN BR OVC016 M04/M06 A2896 RMK AO2 SNB07 P0000 FZRANO $
PAMB 092024Z AUTO 05016KT 2 1/2SM -SN BR OVC016 M05/M06 A2896 RMK AO2 VIS 1 3/4V3 SNB07 P0000 FZRANO $